createdAt,value
2022-07-27T00:01:41.025Z,101183.97
2022-07-27T00:04:18.801Z,101190.94
2022-07-27T00:06:45.580Z,101196.19
2022-07-27T00:09:12.413Z,101187.47
2022-07-27T00:11:39.177Z,101191.00
2022-07-27T00:14:05.883Z,101197.94
2022-07-27T00:16:32.653Z,101193.63
2022-07-27T00:18:59.222Z,101193.63
2022-07-27T00:21:26.665Z,101198.00
2022-07-27T00:23:54.577Z,101189.25
2022-07-27T00:26:21.308Z,101192.75
2022-07-27T00:28:48.594Z,101187.53
2022-07-27T00:31:15.846Z,101184.91
2022-07-27T00:33:42.529Z,101187.50
2022-07-27T00:36:09.375Z,101191.88
2022-07-27T00:38:35.863Z,101187.53
2022-07-27T00:41:02.424Z,101184.03
2022-07-27T00:43:28.909Z,101196.28
2022-07-27T00:45:55.446Z,101191.06
2022-07-27T00:48:22.001Z,101187.56
2022-07-27T00:50:51.250Z,101185.88
2022-07-27T00:53:17.838Z,101194.63
2022-07-27T00:55:45.495Z,101187.56
2022-07-27T00:58:12.631Z,101188.44
2022-07-27T01:00:39.205Z,101182.38
2022-07-27T01:03:09.056Z,101205.09
2022-07-27T01:05:43.214Z,101204.22
2022-07-27T01:08:12.751Z,101201.59
2022-07-27T01:10:40.803Z,101192.88
2022-07-27T01:13:12.774Z,101191.97
2022-07-27T01:15:40.483Z,101186.72
2022-07-27T01:18:26.466Z,101193.72
2022-07-27T01:20:53.271Z,101182.38
2022-07-27T01:23:19.755Z,101192.84
2022-07-27T01:25:46.377Z,101189.38
2022-07-27T01:28:12.872Z,101191.97
2022-07-27T01:30:39.477Z,101188.47
2022-07-27T01:33:07.906Z,101195.47
2022-07-27T01:35:35.189Z,101187.63
2022-07-27T01:38:01.790Z,101198.09
2022-07-27T01:40:28.472Z,101190.22
2022-07-27T01:42:55.248Z,101193.75
2022-07-27T01:45:22.080Z,101189.34
2022-07-27T01:47:49.197Z,101182.34
2022-07-27T01:50:15.925Z,101178.84
2022-07-27T01:52:42.431Z,101181.47
2022-07-27T01:55:10.761Z,101178.84
2022-07-27T01:57:38.455Z,101187.59
2022-07-27T02:00:07.518Z,101184.09
2022-07-27T02:02:34.081Z,101193.72
2022-07-27T02:05:00.662Z,101186.72
2022-07-27T02:07:27.163Z,101190.22
2022-07-27T02:09:53.736Z,101185.84
2022-07-27T02:12:38.426Z,101192.84
2022-07-27T02:15:09.021Z,101194.59
2022-07-27T02:17:42.619Z,101177.09
2022-07-27T02:20:10.646Z,101177.97
2022-07-27T02:22:37.279Z,101175.34
2022-07-27T02:25:05.010Z,101180.59
2022-07-27T02:27:31.653Z,101181.47
2022-07-27T02:29:58.184Z,101192.84
2022-07-27T02:32:25.065Z,101187.59
2022-07-27T02:34:51.867Z,101200.72
2022-07-27T02:37:18.363Z,101200.66
2022-07-27T02:39:44.919Z,101189.31
2022-07-27T02:42:11.496Z,101202.41
2022-07-27T02:44:38.139Z,101198.03
2022-07-27T02:47:04.844Z,101197.16
2022-07-27T02:49:31.399Z,101193.63
2022-07-27T02:51:57.974Z,101196.25
2022-07-27T02:54:25.547Z,101197.13
2022-07-27T02:56:53.311Z,101199.78
2022-07-27T02:59:21.162Z,101199.75
2022-07-27T03:01:49.051Z,101203.25
2022-07-27T03:04:16.097Z,101193.63
2022-07-27T03:06:42.881Z,101191.91
2022-07-27T03:09:10.408Z,101201.50
2022-07-27T03:11:37.186Z,101205.78
2022-07-27T03:14:04.305Z,101196.16
2022-07-27T03:16:30.805Z,101203.16
2022-07-27T03:19:00.145Z,101194.41
2022-07-27T03:21:27.023Z,101197.91
2022-07-27T03:23:53.880Z,101191.78
2022-07-27T03:26:20.390Z,101192.69
2022-07-27T03:28:46.877Z,101196.22
2022-07-27T03:31:13.474Z,101192.75
2022-07-27T03:33:40.178Z,101197.09
2022-07-27T03:36:07.293Z,101202.34
2022-07-27T03:38:34.277Z,101191.00
2022-07-27T03:41:00.943Z,101205.88
2022-07-27T03:43:27.388Z,101208.47
2022-07-27T03:45:53.919Z,101208.44
2022-07-27T03:48:20.468Z,101210.22
2022-07-27T03:50:47.006Z,101203.16
2022-07-27T03:53:13.537Z,101205.75
2022-07-27T03:55:40.182Z,101211.84
2022-07-27T03:58:06.629Z,101203.13
2022-07-27T04:00:33.145Z,101209.28
2022-07-27T04:02:59.712Z,101210.16
2022-07-27T04:05:29.445Z,101206.75
2022-07-27T04:07:56.737Z,101204.03
2022-07-27T04:10:25.062Z,101203.13
2022-07-27T04:12:57.347Z,101210.97
2022-07-27T04:15:25.233Z,101212.72
2022-07-27T04:17:56.470Z,101210.16
2022-07-27T04:20:24.482Z,101214.53
2022-07-27T04:22:51.132Z,101208.34
2022-07-27T04:25:17.648Z,101230.16
2022-07-27T04:27:44.238Z,101222.28
2022-07-27T04:30:11.300Z,101217.88
2022-07-27T04:32:38.256Z,101228.41
2022-07-27T04:35:06.745Z,101223.94
2022-07-27T04:37:33.969Z,101226.59
2022-07-27T04:40:01.074Z,101219.59
2022-07-27T04:42:28.537Z,101211.75
2022-07-27T04:44:55.073Z,101219.53
2022-07-27T04:47:21.786Z,101220.44
2022-07-27T04:49:48.535Z,101220.47
2022-07-27T04:52:16.339Z,101223.91
2022-07-27T04:54:43.157Z,101226.56
2022-07-27T04:57:09.897Z,101230.91
2022-07-27T04:59:36.414Z,101230.94
2022-07-27T05:02:03.657Z,101236.19
2022-07-27T05:04:30.486Z,101237.97
2022-07-27T05:06:57.704Z,101244.13
2022-07-27T05:09:24.254Z,101246.72
2022-07-27T05:11:51.895Z,101247.47
2022-07-27T05:14:21.364Z,101241.34
2022-07-27T05:16:48.323Z,101234.44
2022-07-27T05:19:15.396Z,101244.91
2022-07-27T05:21:42.317Z,101244.81
2022-07-27T05:24:10.045Z,101242.16
2022-07-27T05:26:37.133Z,101242.19
2022-07-27T05:29:03.687Z,101243.09
2022-07-27T05:31:30.542Z,101251.03
2022-07-27T05:33:58.429Z,101250.28
2022-07-27T05:36:25.661Z,101250.16
2022-07-27T05:38:52.199Z,101260.88
2022-07-27T05:41:26.824Z,101261.75
2022-07-27T05:43:57.369Z,101262.72
2022-07-27T05:46:24.897Z,101261.00
2022-07-27T05:48:52.957Z,101270.59
2022-07-27T05:51:19.532Z,101269.72
2022-07-27T05:53:46.334Z,101274.94
2022-07-27T05:56:12.917Z,101281.94
2022-07-27T05:58:39.482Z,101292.50
2022-07-27T06:01:06.070Z,101276.72
2022-07-27T06:03:32.794Z,101292.47
2022-07-27T06:06:18.598Z,101285.47
2022-07-27T06:08:45.125Z,101282.81
2022-07-27T06:11:11.992Z,101285.47
2022-07-27T06:13:42.154Z,101284.59
2022-07-27T06:16:09.662Z,101275.88
2022-07-27T06:18:36.299Z,101283.75
2022-07-27T06:21:03.182Z,101287.22
2022-07-27T06:23:29.725Z,101281.97
2022-07-27T06:25:56.590Z,101283.78
2022-07-27T06:28:23.425Z,101287.28
2022-07-27T06:30:49.928Z,101276.75
2022-07-27T06:33:16.487Z,101283.75
2022-07-27T06:35:43.907Z,101296.03
2022-07-27T06:38:11.695Z,101301.28
2022-07-27T06:40:38.321Z,101296.06
2022-07-27T06:43:04.934Z,101300.41
2022-07-27T06:45:31.458Z,101277.69
2022-07-27T06:47:57.933Z,101304.81
2022-07-27T06:50:24.636Z,101289.06
2022-07-27T06:52:51.228Z,101290.81
2022-07-27T06:55:17.882Z,101294.31
2022-07-27T06:57:46.211Z,101295.19
2022-07-27T07:00:13.394Z,101288.19
2022-07-27T07:02:51.631Z,101286.38
2022-07-27T07:05:18.214Z,101289.91
2022-07-27T07:07:44.730Z,101296.97
2022-07-27T07:10:11.400Z,101292.59
2022-07-27T07:12:37.944Z,101304.81
2022-07-27T07:15:05.243Z,101292.59
2022-07-27T07:17:31.796Z,101309.22
2022-07-27T07:19:58.316Z,101303.06
2022-07-27T07:22:25.796Z,101295.22
2022-07-27T07:24:53.402Z,101275.91
2022-07-27T07:27:23.725Z,101293.44
2022-07-27T07:29:50.767Z,101296.03
2022-07-27T07:32:23.012Z,101285.59
2022-07-27T07:34:51.387Z,101297.78
2022-07-27T07:37:20.033Z,101293.47
2022-07-27T07:39:49.487Z,101298.66
2022-07-27T07:42:16.771Z,101284.63
2022-07-27T07:44:44.268Z,101289.84
2022-07-27T07:47:11.286Z,101283.69
2022-07-27T07:49:39.957Z,101291.50
2022-07-27T07:52:08.154Z,101296.00
2022-07-27T07:54:34.990Z,101296.81
2022-07-27T07:57:36.605Z,101306.22
2022-07-27T08:00:12.150Z,101305.41
2022-07-27T08:03:01.138Z,101259.88
2022-07-27T08:05:46.863Z,101254.66
2022-07-27T08:08:19.274Z,101274.84
2022-07-27T08:10:47.807Z,101281.00
2022-07-27T08:13:19.562Z,101269.47
2022-07-27T08:15:56.562Z,101260.63
2022-07-27T08:18:27.162Z,101311.22
2022-07-27T08:20:57.361Z,101297.19
2022-07-27T08:26:40.884Z,101327.91
2022-07-27T08:29:19.466Z,101316.63
2022-07-27T08:31:53.503Z,101322.88
2022-07-27T08:34:23.801Z,101322.88
2022-07-27T08:37:43.459Z,101320.28
2022-07-27T08:40:41.145Z,101314.81
2022-07-27T08:43:23.445Z,101318.34
2022-07-27T08:45:59.991Z,101283.34
2022-07-27T08:48:41.379Z,101326.25
2022-07-27T08:51:09.661Z,101293.06
2022-07-27T08:53:53.652Z,101291.13
2022-07-27T08:56:47.339Z,101315.69
2022-07-27T08:59:14.457Z,101280.72
2022-07-27T09:01:54.613Z,101315.63
2022-07-27T09:07:59.455Z,101288.50
2022-07-27T09:10:43.983Z,101334.84
2022-07-27T09:14:12.524Z,101263.03
2022-07-27T09:17:44.180Z,101291.75
2022-07-27T09:20:03.715Z,101286.13
2022-07-27T09:22:52.619Z,101327.97
2022-07-27T09:25:52.241Z,101326.16
2022-07-27T09:28:16.883Z,101330.47
2022-07-27T09:30:44.497Z,101323.34
2022-07-27T09:33:25.338Z,101313.78
2022-07-27T09:36:04.687Z,101290.31
2022-07-27T09:38:31.261Z,101319.94
2022-07-27T09:41:06.817Z,101328.59
2022-07-27T09:44:30.473Z,101327.66
2022-07-27T09:46:57.501Z,101328.38
2022-07-27T09:49:36.322Z,101316.09
2022-07-27T09:52:06.001Z,101312.47
2022-07-27T09:55:12.926Z,101283.59
2022-07-27T09:58:03.433Z,101267.91
2022-07-27T10:00:34.908Z,101311.47
2022-07-27T10:03:03.614Z,101313.03
2022-07-27T10:08:35.991Z,101319.63
2022-07-27T10:11:04.126Z,101315.31
2022-07-27T10:13:36.561Z,101321.19
2022-07-27T10:16:19.947Z,101318.69
2022-07-27T10:19:16.297Z,101323.00
2022-07-27T10:21:47.817Z,101318.53
2022-07-27T10:24:29.017Z,101322.72
2022-07-27T10:26:56.187Z,101322.47
2022-07-27T10:29:24.367Z,101316.84
2022-07-27T10:31:53.936Z,101320.41
2022-07-27T10:37:33.336Z,101326.28
2022-07-27T10:40:40.249Z,101312.22
2022-07-27T10:43:22.018Z,101301.75
2022-07-27T10:46:01.726Z,101306.06
2022-07-27T10:48:50.480Z,101328.75
2022-07-27T10:51:34.383Z,101259.63
2022-07-27T10:54:24.123Z,101335.66
2022-07-27T10:56:55.064Z,101302.78
2022-07-27T11:00:13.340Z,101326.53
2022-07-27T11:02:49.443Z,101297.34
2022-07-27T11:05:57.918Z,101327.00
2022-07-27T11:08:35.578Z,101335.53
2022-07-27T11:10:53.746Z,101339.69
2022-07-27T11:13:22.286Z,101329.09
2022-07-27T11:16:22.818Z,101332.19
2022-07-27T11:19:02.061Z,101323.78
2022-07-27T11:21:45.754Z,101328.16
2022-07-27T11:24:18.757Z,101321.63
2022-07-27T11:26:57.546Z,101314.50
2022-07-27T11:32:40.621Z,101273.63
2022-07-27T11:35:26.613Z,101315.78
2022-07-27T11:38:37.185Z,101294.09
2022-07-27T11:41:16.864Z,101295.25
2022-07-27T11:43:56.771Z,101287.94
2022-07-27T11:46:36.383Z,101292.03
2022-07-27T11:49:10.627Z,101313.97
2022-07-27T11:52:00.622Z,101272.31
2022-07-27T11:54:35.332Z,101300.16
2022-07-27T11:57:20.325Z,101302.28
2022-07-27T11:59:48.678Z,101293.84
2022-07-27T12:02:24.223Z,101290.97
2022-07-27T12:05:03.045Z,101278.72
2022-07-27T12:07:43.695Z,101294.84
2022-07-27T12:10:13.438Z,101305.44
2022-07-27T12:12:41.423Z,101289.16
2022-07-27T12:15:44.292Z,101295.91
2022-07-27T12:18:54.936Z,101300.00
2022-07-27T12:21:53.057Z,101241.28
2022-07-27T12:24:41.718Z,101268.19
2022-07-27T12:27:42.984Z,101289.13
2022-07-27T12:30:31.487Z,101294.41
2022-07-27T12:36:36.147Z,101208.25
2022-07-27T12:45:39.288Z,101288.06
2022-07-27T12:48:39.808Z,101210.34
2022-07-27T12:54:24.264Z,101289.97
2022-07-27T12:57:05.140Z,101265.69
2022-07-27T12:59:57.994Z,101288.22
2022-07-27T13:02:37.662Z,101291.38
2022-07-27T13:05:13.699Z,101225.22
2022-07-27T13:08:10.953Z,101243.59
2022-07-27T13:13:52.971Z,101226.97
2022-07-27T13:16:45.684Z,101271.09
2022-07-27T13:19:24.995Z,101263.28
2022-07-27T13:22:18.157Z,101193.44
2022-07-27T13:24:55.139Z,101183.19
2022-07-27T13:27:56.175Z,101250.91
2022-07-27T13:30:27.655Z,101251.09
2022-07-27T13:33:03.773Z,101210.75
2022-07-27T13:35:46.291Z,101251.53
2022-07-27T13:41:31.293Z,101210.09
2022-07-27T13:44:49.064Z,101249.94
2022-07-27T13:47:16.784Z,101247.50
2022-07-27T13:50:17.236Z,101243.38
2022-07-27T13:52:56.262Z,101246.13
2022-07-27T13:55:43.798Z,101246.41
2022-07-27T14:01:39.742Z,101239.34
2022-07-27T14:04:19.498Z,101247.75
2022-07-27T14:06:50.415Z,101232.25
2022-07-27T14:09:51.613Z,101232.41
2022-07-27T14:12:45.764Z,101233.03
2022-07-27T14:15:22.567Z,101213.03
2022-07-27T14:21:21.259Z,101241.28
2022-07-27T14:24:14.498Z,101190.75
2022-07-27T14:26:50.934Z,101231.22
2022-07-27T14:29:28.440Z,101238.47
2022-07-27T14:34:58.326Z,101250.56
2022-07-27T14:37:37.275Z,101250.22
2022-07-27T14:40:14.359Z,101241.81
2022-07-27T14:42:41.981Z,101238.75
2022-07-27T14:45:10.165Z,101224.53
2022-07-27T14:47:37.964Z,101233.16
2022-07-27T14:50:05.107Z,101227.91
2022-07-27T14:52:31.736Z,101233.16
2022-07-27T14:55:00.405Z,101234.50
2022-07-27T14:57:27.668Z,101236.31
2022-07-27T14:59:54.634Z,101244.31
2022-07-27T15:02:21.225Z,101234.09
2022-07-27T15:04:47.872Z,101231.97
2022-07-27T15:07:14.776Z,101240.00
2022-07-27T15:09:41.509Z,101218.75
2022-07-27T15:12:08.278Z,101240.09
2022-07-27T15:14:38.881Z,101247.91
2022-07-27T15:17:06.127Z,101240.13
2022-07-27T15:19:32.917Z,101238.03
2022-07-27T15:21:59.470Z,101245.78
2022-07-27T15:24:26.047Z,101242.44
2022-07-27T15:26:52.678Z,101252.69
2022-07-27T15:29:19.150Z,101255.47
2022-07-27T15:31:45.778Z,101237.19
2022-07-27T15:34:12.362Z,101237.56
2022-07-27T15:36:45.843Z,101246.81
2022-07-27T15:39:20.718Z,101242.66
2022-07-27T15:41:47.774Z,101230.56
2022-07-27T15:44:20.119Z,101245.31
2022-07-27T15:46:48.015Z,101235.25
2022-07-27T15:49:15.152Z,101249.31
2022-07-27T15:51:42.018Z,101241.84
2022-07-27T15:54:08.544Z,101242.72
2022-07-27T15:56:35.090Z,101240.88
2022-07-27T15:59:02.034Z,101234.59
2022-07-27T16:01:35.190Z,101232.66
2022-07-27T16:04:02.587Z,101228.66
2022-07-27T16:06:29.251Z,101235.94
2022-07-27T16:08:55.770Z,101223.88
2022-07-27T16:11:22.867Z,101231.28
2022-07-27T16:13:49.428Z,101225.72
2022-07-27T16:16:21.836Z,101221.53
2022-07-27T16:18:49.382Z,101210.06
2022-07-27T16:21:15.837Z,101207.31
2022-07-27T16:23:42.419Z,101209.19
2022-07-27T16:26:09.030Z,101193.75
2022-07-27T16:28:42.246Z,101209.66
2022-07-27T16:31:11.428Z,101201.56
2022-07-27T16:33:38.489Z,101202.22
2022-07-27T16:36:05.909Z,101201.50
2022-07-27T16:38:33.363Z,101208.56
2022-07-27T16:41:00.032Z,101199.34
2022-07-27T16:43:37.354Z,101204.56
2022-07-27T16:46:07.222Z,101208.75
2022-07-27T16:48:41.890Z,101205.00
2022-07-27T16:51:10.988Z,101206.41
2022-07-27T16:53:42.745Z,101205.41
2022-07-27T16:56:10.172Z,101205.09
2022-07-27T16:58:37.521Z,101204.66
2022-07-27T17:01:05.036Z,101207.38
2022-07-27T17:03:31.734Z,101201.44
2022-07-27T17:06:02.229Z,101201.56
2022-07-27T17:08:32.114Z,101215.19
2022-07-27T17:11:00.509Z,101203.31
2022-07-27T17:13:33.848Z,101208.19
2022-07-27T17:16:05.786Z,101200.94
2022-07-27T17:18:39.385Z,101215.16
2022-07-27T17:21:07.419Z,101204.31
2022-07-27T17:23:37.893Z,101209.50
2022-07-27T17:26:06.803Z,101204.25
2022-07-27T17:28:36.622Z,101208.13
2022-07-27T17:31:04.595Z,101205.38
2022-07-27T17:33:31.310Z,101204.72
2022-07-27T17:35:58.807Z,101202.69
2022-07-27T17:38:26.972Z,101200.22
2022-07-27T17:40:53.836Z,101202.94
2022-07-27T17:43:20.608Z,101187.56
2022-07-27T17:45:47.285Z,101206.09
2022-07-27T17:48:13.985Z,101208.84
2022-07-27T17:50:40.492Z,101203.38
2022-07-27T17:53:07.011Z,101194.41
2022-07-27T17:55:35.617Z,101206.06
2022-07-27T17:58:02.100Z,101209.88
2022-07-27T18:00:29.196Z,101207.81
2022-07-27T18:02:56.246Z,101205.47
2022-07-27T18:05:22.785Z,101208.13
2022-07-27T18:07:51.868Z,101212.00
2022-07-27T18:10:18.488Z,101210.47
2022-07-27T18:12:45.025Z,101211.56
2022-07-27T18:15:30.259Z,101218.28
2022-07-27T18:17:56.969Z,101214.31
2022-07-27T18:20:23.616Z,101213.53
2022-07-27T18:22:50.222Z,101211.16
2022-07-27T18:25:16.903Z,101202.25
2022-07-27T18:27:44.844Z,101212.84
2022-07-27T18:30:12.334Z,101205.75
2022-07-27T18:32:39.416Z,101220.69
2022-07-27T18:35:06.434Z,101220.91
2022-07-27T18:37:32.963Z,101208.50
2022-07-27T18:39:59.573Z,101220.06
2022-07-27T18:42:26.088Z,101210.72
2022-07-27T18:44:52.811Z,101216.03
2022-07-27T18:47:19.409Z,101209.06
2022-07-27T18:49:45.875Z,101218.66
2022-07-27T18:52:13.074Z,101224.75
2022-07-27T18:54:39.792Z,101231.78
2022-07-27T18:57:06.318Z,101223.88
2022-07-27T18:59:35.572Z,101227.28
2022-07-27T19:02:07.468Z,101223.06
2022-07-27T19:04:34.082Z,101229.25
2022-07-27T19:07:00.769Z,101240.47
2022-07-27T19:09:28.293Z,101236.00
2022-07-27T19:11:54.851Z,101231.91
2022-07-27T19:14:23.051Z,101238.97
2022-07-27T19:16:51.221Z,101245.06
2022-07-27T19:19:22.772Z,101238.81
2022-07-27T19:21:49.773Z,101247.63
2022-07-27T19:24:16.386Z,101251.47
2022-07-27T19:26:44.855Z,101240.72
2022-07-27T19:29:20.590Z,101252.75
2022-07-27T19:31:47.731Z,101260.63
2022-07-27T19:34:14.276Z,101256.25
2022-07-27T19:36:40.873Z,101258.91
2022-07-27T19:39:08.284Z,101267.66
2022-07-27T19:41:35.307Z,101261.50
2022-07-27T19:44:02.353Z,101263.25
2022-07-27T19:46:29.221Z,101271.19
2022-07-27T19:48:55.985Z,101265.16
2022-07-27T19:51:22.615Z,101284.53
2022-07-27T19:53:49.490Z,101280.19
2022-07-27T19:56:16.314Z,101279.28
2022-07-27T19:58:42.857Z,101283.72
2022-07-27T20:01:11.476Z,101277.59
2022-07-27T20:03:53.872Z,101277.59
2022-07-27T20:06:22.503Z,101279.50
2022-07-27T20:08:49.118Z,101290.00
2022-07-27T20:11:17.074Z,101290.97
2022-07-27T20:13:43.638Z,101298.06
2022-07-27T20:16:10.332Z,101285.00
2022-07-27T20:18:37.594Z,101281.50
2022-07-27T20:21:04.366Z,101290.34
2022-07-27T20:23:48.788Z,101289.53
2022-07-27T20:26:15.280Z,101283.34
2022-07-27T20:28:41.892Z,101284.22
2022-07-27T20:31:08.464Z,101292.16
2022-07-27T20:33:35.062Z,101279.97
2022-07-27T20:36:01.599Z,101288.75
2022-07-27T20:38:28.189Z,101288.97
2022-07-27T20:40:55.233Z,101289.00
2022-07-27T20:43:21.754Z,101288.16
2022-07-27T20:45:48.248Z,101300.38
2022-07-27T20:48:14.979Z,101302.94
2022-07-27T20:50:41.486Z,101310.81
2022-07-27T20:53:07.967Z,101313.47
2022-07-27T20:55:36.066Z,101314.34
2022-07-27T20:58:02.618Z,101317.81
2022-07-27T21:00:29.450Z,101318.72
2022-07-27T21:02:56.496Z,101316.97
2022-07-27T21:05:26.883Z,101321.31
2022-07-27T21:07:54.608Z,101318.75
2022-07-27T21:10:22.757Z,101324.00
2022-07-27T21:12:50.705Z,101310.97
2022-07-27T21:15:17.599Z,101317.88
2022-07-27T21:17:44.311Z,101328.41
2022-07-27T21:20:11.544Z,101322.22
2022-07-27T21:22:38.200Z,101320.50
2022-07-27T21:25:04.933Z,101314.44
2022-07-27T21:27:32.100Z,101320.59
2022-07-27T21:29:59.142Z,101319.72
2022-07-27T21:32:25.718Z,101322.31
2022-07-27T21:34:52.233Z,101329.28
2022-07-27T21:37:18.870Z,101330.13
2022-07-27T21:39:45.801Z,101329.28
2022-07-27T21:42:12.588Z,101330.13
2022-07-27T21:44:39.515Z,101325.78
2022-07-27T21:47:11.474Z,101331.81
2022-07-27T21:49:40.211Z,101334.50
2022-07-27T21:52:07.479Z,101329.25
2022-07-27T21:54:33.980Z,101334.50
2022-07-27T21:57:00.660Z,101324.00
2022-07-27T21:59:27.233Z,101326.59
2022-07-27T22:01:53.761Z,101330.97
2022-07-27T22:04:21.205Z,101334.50
2022-07-27T22:06:47.729Z,101331.81
2022-07-27T22:09:14.310Z,101329.13
2022-07-27T22:11:40.962Z,101332.56
2022-07-27T22:14:07.533Z,101329.00
2022-07-27T22:16:34.426Z,101329.84
2022-07-27T22:19:00.993Z,101334.22
2022-07-27T22:21:28.826Z,101333.25
2022-07-27T22:23:55.317Z,101339.31
2022-07-27T22:26:21.847Z,101336.72
2022-07-27T22:28:48.605Z,101334.22
2022-07-27T22:31:21.800Z,101338.56
2022-07-27T22:33:49.837Z,101336.84
2022-07-27T22:36:16.423Z,101337.69
2022-07-27T22:38:43.005Z,101331.31
2022-07-27T22:41:09.954Z,101340.97
2022-07-27T22:43:36.466Z,101346.44
2022-07-27T22:46:04.101Z,101355.06
2022-07-27T22:48:30.787Z,101344.69
2022-07-27T22:50:57.439Z,101338.56
2022-07-27T22:53:23.963Z,101340.41
2022-07-27T22:55:50.537Z,101338.59
2022-07-27T22:58:17.015Z,101340.88
2022-07-27T23:00:43.634Z,101345.22
2022-07-27T23:03:10.219Z,101345.00
2022-07-27T23:05:36.917Z,101348.78
2022-07-27T23:08:03.475Z,101352.22
2022-07-27T23:10:48.501Z,101350.63
2022-07-27T23:13:17.287Z,101356.69
2022-07-27T23:15:44.877Z,101350.63
2022-07-27T23:18:12.072Z,101354.78
2022-07-27T23:20:39.695Z,101359.28
2022-07-27T23:23:12.411Z,101354.97
2022-07-27T23:25:43.179Z,101349.50
2022-07-27T23:28:09.645Z,101343.94
2022-07-27T23:30:36.167Z,101343.25
2022-07-27T23:33:02.710Z,101337.13
2022-07-27T23:35:29.541Z,101355.56
2022-07-27T23:37:56.152Z,101343.34
2022-07-27T23:40:22.635Z,101343.28
2022-07-27T23:42:49.754Z,101344.13
2022-07-27T23:45:16.499Z,101345.84
2022-07-27T23:47:43.054Z,101330.94
2022-07-27T23:50:10.493Z,101346.06
2022-07-27T23:52:37.792Z,101337.44
2022-07-27T23:55:05.556Z,101347.03
2022-07-27T23:57:32.174Z,101343.56
2022-07-27T23:59:58.719Z,101343.56
